Time;durP1;ratioP1;P1;durP2;ratioP2;P2;SDS_P1;SDS_P2;PMS_P1;PMS_P2;Temp;Humidity;BMP_temperature;BMP_pressure;BME280_temperature;BME280_humidity;BME280_pressure;Samples;Min_cycle;Max_cycle;Signal;HPM_P1;HPM_P2
2024/01/18 00:01:36;;;;;;;33.42;24.20;;;0.40;99.90;;;;;;4997793;28;20236;-71
2024/01/18 00:04:03;;;;;;;30.45;20.85;;;0.30;99.90;;;;;;4994882;28;20209;-71
2024/01/18 00:06:32;;;;;;;26.77;22.55;;;0.40;99.90;;;;;;4999013;28;20221;-76
2024/01/18 00:08:59;;;;;;;31.05;20.75;;;0.40;99.90;;;;;;4986278;28;20234;-73
2024/01/18 00:11:27;;;;;;;30.10;21.35;;;0.40;99.90;;;;;;5003080;28;20205;-75
2024/01/18 00:13:54;;;;;;;33.10;24.48;;;0.40;99.90;;;;;;4996387;28;20572;-73
2024/01/18 00:16:21;;;;;;;35.13;23.98;;;0.30;99.90;;;;;;4990235;28;20202;-73
2024/01/18 00:18:50;;;;;;;37.35;24.20;;;0.30;99.90;;;;;;4991653;28;20233;-73
2024/01/18 00:21:16;;;;;;;44.67;24.15;;;0.30;99.90;;;;;;4997516;28;20685;-72
2024/01/18 00:23:43;;;;;;;31.10;23.02;;;0.20;99.90;;;;;;4992988;28;20229;-73
2024/01/18 00:26:11;;;;;;;40.20;26.17;;;0.20;99.90;;;;;;4993451;28;20203;-72
2024/01/18 00:28:38;;;;;;;32.50;22.98;;;0.20;99.90;;;;;;4990229;28;20261;-71
2024/01/18 00:31:05;;;;;;;35.10;24.80;;;0.20;99.90;;;;;;4999617;28;20257;-71
2024/01/18 00:33:32;;;;;;;27.42;22.33;;;0.20;99.90;;;;;;4986464;28;20632;-71
2024/01/18 00:36:00;;;;;;;40.28;25.58;;;0.30;99.90;;;;;;5002328;28;20214;-74
2024/01/18 00:38:27;;;;;;;40.95;24.88;;;0.10;99.90;;;;;;5000995;28;20202;-71
2024/01/18 00:40:54;;;;;;;38.33;25.15;;;0.30;99.90;;;;;;4995119;28;20206;-73
2024/01/18 00:43:21;;;;;;;29.75;24.65;;;0.10;99.90;;;;;;4992449;28;20265;-73
2024/01/18 00:45:48;;;;;;;33.90;22.20;;;0.10;99.90;;;;;;5002679;28;20205;-73
2024/01/18 00:48:15;;;;;;;29.52;23.15;;;0.20;99.90;;;;;;4997703;28;20269;-71
2024/01/18 00:50:42;;;;;;;38.05;25.15;;;0.20;99.90;;;;;;5006975;28;20205;-72
2024/01/18 00:53:10;;;;;;;29.05;23.98;;;0.30;99.90;;;;;;5003648;28;20261;-73
2024/01/18 00:55:37;;;;;;;36.15;23.50;;;0.20;99.90;;;;;;4995314;28;20235;-72
2024/01/18 00:58:05;;;;;;;38.03;26.65;;;0.20;99.90;;;;;;4998935;28;20209;-73
2024/01/18 01:00:33;;;;;;;34.10;24.48;;;0.20;99.90;;;;;;4992390;28;20210;-72
2024/01/18 01:02:59;;;;;;;34.00;24.90;;;0.20;99.90;;;;;;4991462;28;20226;-75
2024/01/18 01:05:27;;;;;;;31.00;23.38;;;0.20;99.90;;;;;;4991328;28;20225;-72
2024/01/18 01:07:54;;;;;;;41.05;28.23;;;0.20;99.90;;;;;;4999947;28;20633;-71
2024/01/18 01:10:22;;;;;;;32.88;25.40;;;0.20;99.90;;;;;;5005738;28;20629;-70
2024/01/18 01:12:49;;;;;;;29.50;24.40;;;0.10;99.90;;;;;;5008958;28;20801;-72
2024/01/18 01:15:17;;;;;;;35.85;23.88;;;0.20;99.90;;;;;;4999265;28;20205;-73
2024/01/18 01:17:44;;;;;;;33.45;26.55;;;0.20;99.90;;;;;;4987455;28;20244;-72
2024/01/18 01:20:12;;;;;;;37.88;25.80;;;0.20;99.90;;;;;;5001913;28;20248;-73
2024/01/18 01:22:39;;;;;;;40.08;25.80;;;0.10;99.90;;;;;;5002589;28;20299;-71
2024/01/18 01:25:07;;;;;;;45.83;28.30;;;0.10;99.90;;;;;;4997980;28;20202;-75
2024/01/18 01:27:35;;;;;;;31.17;23.35;;;0.10;99.90;;;;;;5000538;28;20218;-73
2024/01/18 01:30:02;;;;;;;35.22;24.13;;;0.20;99.90;;;;;;5004649;28;20245;-72
2024/01/18 01:32:29;;;;;;;25.92;22.92;;;0.30;99.90;;;;;;4996584;28;20217;-71
2024/01/18 01:34:56;;;;;;;32.63;26.48;;;0.30;99.90;;;;;;4998559;28;20302;-70
2024/01/18 01:37:23;;;;;;;28.67;21.90;;;0.30;99.90;;;;;;5007129;28;20629;-73
2024/01/18 01:39:50;;;;;;;35.25;24.02;;;0.40;99.90;;;;;;4999969;28;20237;-74
2024/01/18 01:42:17;;;;;;;31.70;24.90;;;0.40;99.90;;;;;;4990063;28;20297;-72
2024/01/18 01:44:45;;;;;;;30.83;23.60;;;0.30;99.90;;;;;;5005033;28;20209;-73
2024/01/18 01:47:12;;;;;;;29.45;24.08;;;0.30;99.90;;;;;;4995738;28;20241;-71
2024/01/18 01:49:39;;;;;;;33.80;25.63;;;0.30;99.90;;;;;;4994864;28;20238;-73
2024/01/18 01:52:07;;;;;;;38.22;24.55;;;0.30;99.90;;;;;;4996673;28;20258;-73
2024/01/18 01:54:34;;;;;;;32.45;24.20;;;0.20;99.90;;;;;;4992343;28;20248;-72
2024/01/18 01:57:03;;;;;;;34.67;25.38;;;0.20;99.90;;;;;;4992330;28;20210;-73
2024/01/18 01:59:32;;;;;;;33.63;23.95;;;0.20;99.90;;;;;;5004087;28;20234;-73
2024/01/18 02:02:00;;;;;;;36.38;26.20;;;0.20;99.90;;;;;;4986120;28;20221;-72
2024/01/18 02:04:28;;;;;;;34.22;23.38;;;0.20;99.90;;;;;;5003357;28;20220;-72
2024/01/18 02:06:56;;;;;;;32.42;23.70;;;0.20;99.90;;;;;;5006139;28;20205;-71
2024/01/18 02:09:23;;;;;;;40.33;26.15;;;0.10;99.90;;;;;;5005616;28;20253;-72
2024/01/18 02:11:50;;;;;;;40.72;26.67;;;0.10;99.90;;;;;;4999831;28;20225;-72
2024/01/18 02:14:16;;;;;;;34.85;24.10;;;0.10;99.90;;;;;;5000270;28;20202;-73
2024/01/18 02:16:44;;;;;;;39.67;25.80;;;0.10;99.90;;;;;;5004310;28;20210;-72
2024/01/18 02:19:12;;;;;;;45.60;27.45;;;0.00;99.90;;;;;;4996347;28;20238;-73
2024/01/18 02:21:39;;;;;;;44.28;28.15;;;0.00;99.90;;;;;;4993600;28;20727;-73
2024/01/18 02:24:15;;;;;;;33.78;27.60;;;-0.10;99.90;;;;;;5001409;28;20648;-72
2024/01/18 02:26:43;;;;;;;33.05;24.20;;;0.00;99.90;;;;;;4992919;28;20204;-73
2024/01/18 02:29:10;;;;;;;29.25;25.15;;;0.00;99.90;;;;;;4993522;28;20716;-72
2024/01/18 02:31:37;;;;;;;32.00;24.92;;;0.00;99.90;;;;;;4998371;28;20229;-71
2024/01/18 02:34:09;;;;;;;34.60;24.98;;;0.00;99.90;;;;;;4999749;28;20263;-72
2024/01/18 02:36:36;;;;;;;38.53;26.17;;;-0.10;99.90;;;;;;4987729;28;20248;-73
2024/01/18 02:39:04;;;;;;;36.55;27.50;;;-0.10;99.90;;;;;;4998538;28;20251;-71
2024/01/18 02:41:32;;;;;;;31.65;23.23;;;-0.20;99.90;;;;;;4990884;28;20236;-73
2024/01/18 02:44:01;;;;;;;32.50;23.88;;;0.00;99.90;;;;;;5004244;28;20248;-73
2024/01/18 02:46:31;;;;;;;30.67;22.48;;;0.00;99.90;;;;;;5001786;28;20304;-72
2024/01/18 02:48:58;;;;;;;35.08;25.17;;;0.00;99.90;;;;;;5005538;28;20231;-73
2024/01/18 02:51:25;;;;;;;34.55;23.55;;;0.00;99.90;;;;;;5003310;28;20255;-73
2024/01/18 02:53:52;;;;;;;35.22;24.35;;;0.00;99.90;;;;;;4992368;28;20628;-73
2024/01/18 02:56:21;;;;;;;27.25;21.40;;;0.10;99.90;;;;;;5000487;28;20201;-74
2024/01/18 02:58:48;;;;;;;32.80;21.08;;;0.10;99.90;;;;;;4999868;28;20234;-73
2024/01/18 03:01:16;;;;;;;34.30;26.02;;;0.10;99.90;;;;;;4992896;28;20259;-73
2024/01/18 03:03:43;;;;;;;33.15;24.90;;;0.10;99.90;;;;;;5000176;28;20701;-73
2024/01/18 03:06:10;;;;;;;27.10;21.50;;;0.10;99.90;;;;;;5001722;28;20283;-73
2024/01/18 03:08:37;;;;;;;38.65;24.15;;;0.10;99.90;;;;;;5008466;28;20268;-73
2024/01/18 03:11:04;;;;;;;31.55;24.05;;;0.20;99.90;;;;;;4986754;28;20295;-73
2024/01/18 03:13:31;;;;;;;27.20;21.60;;;0.10;99.90;;;;;;5010242;28;20221;-72
2024/01/18 03:15:58;;;;;;;41.42;25.25;;;0.20;99.90;;;;;;4999517;28;20202;-71
2024/01/18 03:18:26;;;;;;;30.27;22.55;;;0.10;99.90;;;;;;5006927;28;20285;-73
2024/01/18 03:20:53;;;;;;;26.50;19.90;;;0.10;99.90;;;;;;4991296;28;20207;-74
2024/01/18 03:23:20;;;;;;;34.75;24.77;;;0.10;99.90;;;;;;4994492;28;20763;-72
2024/01/18 03:25:47;;;;;;;34.40;24.70;;;-0.10;99.90;;;;;;5003902;28;20210;-72
2024/01/18 03:28:14;;;;;;;35.75;26.65;;;-0.10;99.90;;;;;;4987429;28;20223;-72
2024/01/18 03:30:41;;;;;;;33.95;25.60;;;-0.10;99.90;;;;;;5000995;28;20661;-72
2024/01/18 03:33:08;;;;;;;32.20;22.30;;;-0.20;99.90;;;;;;4986845;28;20328;-71
2024/01/18 03:35:37;;;;;;;34.97;24.88;;;-0.20;99.90;;;;;;5005360;28;20248;-72
2024/01/18 03:38:04;;;;;;;30.10;23.95;;;-0.20;99.90;;;;;;4998170;28;20214;-72
2024/01/18 03:40:31;;;;;;;32.65;24.75;;;-0.30;99.90;;;;;;4991818;28;20630;-72
2024/01/18 03:42:58;;;;;;;38.90;26.20;;;-0.30;99.90;;;;;;4996766;28;20288;-72
2024/01/18 03:45:25;;;;;;;42.90;27.92;;;-0.40;99.90;;;;;;4993197;28;20253;-73
2024/01/18 03:47:52;;;;;;;35.05;27.30;;;-0.40;99.90;;;;;;4994505;28;20293;-74
2024/01/18 03:50:19;;;;;;;36.63;26.80;;;-0.40;99.90;;;;;;5001366;28;20237;-72
2024/01/18 03:52:47;;;;;;;38.00;27.05;;;-0.50;99.90;;;;;;4994634;28;20262;-72
2024/01/18 03:55:14;;;;;;;40.10;29.90;;;-0.60;99.90;;;;;;4998276;28;20234;-73
2024/01/18 03:57:42;;;;;;;37.50;28.35;;;-0.60;99.90;;;;;;5009586;28;20244;-72
2024/01/18 04:00:12;;;;;;;46.67;28.00;;;-0.50;99.90;;;;;;5000097;28;20202;-71
2024/01/18 04:02:39;;;;;;;43.65;28.00;;;-0.60;99.90;;;;;;4998419;28;20225;-73
2024/01/18 04:05:07;;;;;;;31.45;26.15;;;-0.70;99.90;;;;;;5001602;28;20213;-73
2024/01/18 04:07:35;;;;;;;38.90;27.75;;;-0.60;99.90;;;;;;4994108;28;20237;-72
2024/01/18 04:10:04;;;;;;;37.28;25.33;;;-0.50;99.90;;;;;;5000165;28;20327;-73
2024/01/18 04:12:31;;;;;;;32.47;24.15;;;-0.50;99.90;;;;;;4995628;28;20268;-72
2024/01/18 04:14:58;;;;;;;33.60;24.42;;;-0.50;99.90;;;;;;5004122;28;20271;-73
2024/01/18 04:17:25;;;;;;;35.88;26.98;;;-0.40;99.90;;;;;;4990285;28;20202;-73
2024/01/18 04:19:52;;;;;;;33.80;24.48;;;-0.40;99.90;;;;;;4993420;28;20202;-73
2024/01/18 04:22:22;;;;;;;41.92;28.35;;;-0.50;99.90;;;;;;4994494;28;20257;-72
2024/01/18 04:24:49;;;;;;;35.33;26.50;;;-0.50;99.90;;;;;;4998142;28;20233;-71
2024/01/18 04:27:17;;;;;;;38.90;24.00;;;-0.50;99.90;;;;;;5005117;28;20202;-73
2024/01/18 04:29:44;;;;;;;40.33;28.38;;;-0.60;99.90;;;;;;4986925;28;20261;-72
2024/01/18 04:32:11;;;;;;;34.70;26.70;;;-0.60;99.90;;;;;;5003051;28;20651;-73
2024/01/18 04:34:38;;;;;;;32.25;26.17;;;-0.60;99.90;;;;;;5000270;28;20245;-72
2024/01/18 04:37:05;;;;;;;32.90;25.67;;;-0.70;99.90;;;;;;4990586;28;20285;-72
2024/01/18 04:39:32;;;;;;;29.95;23.98;;;-0.70;99.90;;;;;;4999388;28;20222;-73
2024/01/18 04:41:59;;;;;;;37.47;26.50;;;-0.70;99.90;;;;;;4995844;28;20280;-73
2024/01/18 04:44:27;;;;;;;35.40;27.30;;;-0.60;99.90;;;;;;5005470;28;20249;-72
2024/01/18 04:46:54;;;;;;;42.40;26.65;;;-0.70;99.90;;;;;;4992846;28;20237;-72
2024/01/18 04:49:21;;;;;;;36.38;27.45;;;-0.70;99.90;;;;;;5000879;28;20229;-73
2024/01/18 04:51:49;;;;;;;37.03;27.50;;;-0.70;99.90;;;;;;5002347;28;20708;-72
2024/01/18 04:54:16;;;;;;;38.15;26.92;;;-0.80;99.90;;;;;;5001918;28;20252;-72
2024/01/18 04:56:43;;;;;;;45.03;28.80;;;-0.80;99.90;;;;;;5007739;28;20268;-73
2024/01/18 04:59:10;;;;;;;35.70;28.48;;;-0.80;99.90;;;;;;5002489;28;20198;-73
2024/01/18 05:01:40;;;;;;;34.80;29.35;;;-0.80;99.90;;;;;;5006556;28;20290;-72
2024/01/18 05:04:07;;;;;;;35.42;24.90;;;-0.80;99.90;;;;;;5000946;28;20202;-71
2024/01/18 05:06:34;;;;;;;36.60;27.80;;;-0.80;99.90;;;;;;4995886;28;20240;-71
2024/01/18 05:09:01;;;;;;;30.30;25.40;;;-0.80;99.90;;;;;;4995963;28;20294;-73
2024/01/18 05:11:29;;;;;;;31.42;24.10;;;-0.70;99.90;;;;;;4996499;28;20202;-73
2024/01/18 05:13:56;;;;;;;36.42;26.67;;;-0.70;99.90;;;;;;4995056;28;20202;-74
2024/01/18 05:16:25;;;;;;;35.40;27.88;;;-0.70;99.90;;;;;;4994816;28;20203;-74
2024/01/18 05:18:53;;;;;;;35.85;26.13;;;-0.70;99.90;;;;;;4993121;28;20205;-72
2024/01/18 05:21:21;;;;;;;37.53;27.55;;;-0.70;99.90;;;;;;4986357;28;20665;-73
2024/01/18 05:23:49;;;;;;;39.35;25.77;;;-0.70;99.90;;;;;;5002490;28;20686;-72
2024/01/18 05:26:16;;;;;;;40.03;28.00;;;-0.70;99.90;;;;;;4991795;28;20246;-74
2024/01/18 05:28:43;;;;;;;35.53;27.55;;;-0.70;99.90;;;;;;4999564;28;20230;-72
2024/01/18 05:31:10;;;;;;;35.50;28.08;;;-0.70;99.90;;;;;;4989208;28;20579;-72
2024/01/18 05:33:37;;;;;;;40.42;25.20;;;-0.70;99.90;;;;;;4997459;28;20217;-72
2024/01/18 05:36:06;;;;;;;33.83;26.13;;;-0.70;99.90;;;;;;5004441;28;20214;-73
2024/01/18 05:38:33;;;;;;;37.28;27.95;;;-0.70;99.90;;;;;;4996748;28;20640;-72
2024/01/18 05:41:00;;;;;;;38.35;28.35;;;-0.70;99.90;;;;;;4991018;28;20202;-72
2024/01/18 05:43:27;;;;;;;41.55;26.60;;;-0.80;99.90;;;;;;4991098;28;20221;-74
2024/01/18 05:45:55;;;;;;;36.88;24.70;;;-0.80;99.90;;;;;;5001314;28;20729;-72
2024/01/18 05:48:23;;;;;;;42.88;31.58;;;-0.80;99.90;;;;;;4998659;28;20289;-72
2024/01/18 05:50:50;;;;;;;36.78;28.23;;;-0.80;99.90;;;;;;4989566;28;20261;-73
2024/01/18 05:53:18;;;;;;;64.10;31.52;;;-0.80;99.90;;;;;;4997939;28;20233;-71
2024/01/18 05:55:47;;;;;;;32.35;26.65;;;-0.80;99.90;;;;;;4990117;28;20583;-72
2024/01/18 05:58:14;;;;;;;39.97;28.02;;;-0.80;99.90;;;;;;4994658;28;20264;-72
2024/01/18 06:00:41;;;;;;;34.63;26.30;;;-0.80;99.90;;;;;;4987037;28;20234;-72
2024/01/18 06:03:09;;;;;;;37.13;27.70;;;-0.80;99.90;;;;;;4991337;28;20732;-73
2024/01/18 06:05:36;;;;;;;38.22;28.13;;;-0.80;99.90;;;;;;4988332;28;20292;-72
2024/01/18 06:08:04;;;;;;;37.33;28.30;;;-0.80;99.90;;;;;;4995870;28;20267;-70
2024/01/18 06:10:33;;;;;;;37.22;27.83;;;-0.80;99.90;;;;;;4988781;28;20284;-70
2024/01/18 06:13:00;;;;;;;37.65;28.80;;;-0.80;99.90;;;;;;4992523;28;20693;-72
2024/01/18 06:15:27;;;;;;;38.20;25.38;;;-0.80;99.90;;;;;;4990709;28;20206;-73
2024/01/18 06:17:56;;;;;;;38.30;27.20;;;-0.80;99.90;;;;;;4986686;28;20239;-72
2024/01/18 06:20:23;;;;;;;37.22;27.10;;;-0.80;99.90;;;;;;4991135;28;20230;-71
2024/01/18 06:22:50;;;;;;;44.75;28.67;;;-0.80;99.90;;;;;;4992336;28;20687;-73
2024/01/18 06:25:18;;;;;;;39.40;27.88;;;-0.80;99.90;;;;;;4988637;28;20233;-73
2024/01/18 06:27:46;;;;;;;37.65;28.05;;;-0.70;99.90;;;;;;4984389;28;20732;-73
2024/01/18 06:30:14;;;;;;;31.75;25.00;;;-0.70;99.90;;;;;;4998706;28;20650;-71
2024/01/18 06:32:41;;;;;;;33.35;25.85;;;-0.70;99.90;;;;;;4982245;28;20234;-73
2024/01/18 06:35:09;;;;;;;33.85;25.83;;;-0.80;99.90;;;;;;5002076;28;20276;-73
2024/01/18 06:37:36;;;;;;;32.40;25.08;;;-0.80;99.90;;;;;;4998081;28;20676;-73
2024/01/18 06:40:03;;;;;;;29.33;23.98;;;-0.80;99.90;;;;;;5003609;28;20195;-72
2024/01/18 06:42:31;;;;;;;31.30;25.80;;;-0.80;99.90;;;;;;4996917;28;20218;-71
2024/01/18 06:44:59;;;;;;;38.50;26.48;;;-0.80;99.90;;;;;;4998544;28;20202;-73
2024/01/18 06:47:27;;;;;;;43.58;27.80;;;-0.80;99.90;;;;;;4995981;28;20256;-72
2024/01/18 06:49:54;;;;;;;37.63;25.83;;;-0.90;99.90;;;;;;4999667;28;20338;-72
2024/01/18 06:52:21;;;;;;;36.15;25.75;;;-0.90;99.90;;;;;;5004212;28;20228;-72
2024/01/18 06:54:48;;;;;;;38.47;24.40;;;-0.90;99.90;;;;;;4995006;28;20201;-72
2024/01/18 06:57:15;;;;;;;38.47;24.65;;;-0.90;99.90;;;;;;5004111;28;20214;-72
2024/01/18 06:59:46;;;;;;;33.78;25.10;;;-0.90;99.90;;;;;;4995889;28;20229;-73
2024/01/18 07:02:14;;;;;;;37.75;25.40;;;-0.90;99.90;;;;;;5002422;28;20699;-69
2024/01/18 07:04:41;;;;;;;39.65;24.05;;;-0.90;99.90;;;;;;4992036;28;20672;-70
2024/01/18 07:07:08;;;;;;;39.38;26.83;;;-0.90;99.90;;;;;;4999457;28;20202;-73
2024/01/18 07:09:35;;;;;;;37.10;25.52;;;-0.90;99.90;;;;;;5001746;28;20230;-73
2024/01/18 07:12:02;;;;;;;33.53;23.77;;;-0.90;99.90;;;;;;5001612;28;20218;-73
2024/01/18 07:14:30;;;;;;;34.00;24.42;;;-0.80;99.90;;;;;;5001610;28;20244;-73
2024/01/18 07:16:57;;;;;;;30.67;23.27;;;-0.80;99.90;;;;;;5004336;28;20234;-72
2024/01/18 07:19:26;;;;;;;32.55;23.10;;;-0.70;99.90;;;;;;5002996;28;20248;-72
2024/01/18 07:21:53;;;;;;;39.00;23.58;;;-0.80;99.90;;;;;;4999728;28;20230;-72
2024/01/18 07:24:21;;;;;;;32.00;24.60;;;-0.80;99.90;;;;;;5001877;28;20212;-71
2024/01/18 07:26:48;;;;;;;30.95;24.58;;;-0.70;99.90;;;;;;5002925;28;20210;-72
2024/01/18 07:29:15;;;;;;;35.28;26.98;;;-0.70;99.90;;;;;;5003848;28;20303;-70
2024/01/18 07:31:44;;;;;;;33.63;25.55;;;-0.70;99.90;;;;;;4998933;28;20636;-71
2024/01/18 07:34:11;;;;;;;38.72;27.52;;;-0.80;99.90;;;;;;4995786;28;20221;-73
2024/01/18 07:36:39;;;;;;;38.80;26.17;;;-0.80;99.90;;;;;;4995316;28;20645;-68
2024/01/18 07:39:06;;;;;;;37.25;25.50;;;-0.80;99.90;;;;;;4995635;28;20293;-70
2024/01/18 07:41:33;;;;;;;37.28;24.33;;;-0.80;99.90;;;;;;4994499;28;20231;-70
2024/01/18 07:44:00;;;;;;;33.47;25.63;;;-0.80;99.90;;;;;;4991489;28;20684;-73
2024/01/18 07:46:27;;;;;;;33.05;23.75;;;-0.90;99.90;;;;;;4995001;28;20301;-72
2024/01/18 07:48:54;;;;;;;35.05;24.75;;;-0.90;99.90;;;;;;5004788;28;20205;-71
2024/01/18 07:51:21;;;;;;;40.83;26.65;;;-0.80;99.90;;;;;;5002388;28;20757;-72
2024/01/18 07:53:49;;;;;;;34.90;25.00;;;-0.90;99.90;;;;;;4998248;28;20240;-72
2024/01/18 07:56:17;;;;;;;35.25;25.95;;;-0.80;99.90;;;;;;5005146;28;20201;-71
2024/01/18 07:58:44;;;;;;;34.25;26.27;;;-0.80;99.90;;;;;;5000891;28;20648;-72
2024/01/18 08:01:11;;;;;;;39.75;27.35;;;-0.90;99.90;;;;;;5005125;28;20217;-70
2024/01/18 08:03:39;;;;;;;30.25;22.40;;;-0.80;99.90;;;;;;4999929;28;20249;-71
2024/01/18 08:06:06;;;;;;;34.80;25.42;;;-0.80;99.90;;;;;;4994260;28;20268;-71
2024/01/18 08:08:33;;;;;;;36.63;25.48;;;-0.80;99.90;;;;;;4998849;28;20216;-73
2024/01/18 08:11:02;;;;;;;34.95;24.90;;;-0.80;99.90;;;;;;4998677;28;20256;-73
2024/01/18 08:13:29;;;;;;;34.40;26.83;;;-0.70;99.90;;;;;;4999754;28;20229;-70
2024/01/18 08:15:56;;;;;;;34.00;23.48;;;-0.60;99.90;;;;;;4998401;28;20718;-74
2024/01/18 08:18:24;;;;;;;31.52;21.90;;;-0.50;99.90;;;;;;5003118;28;20201;-71
2024/01/18 08:20:51;;;;;;;27.70;20.55;;;-0.30;99.90;;;;;;5000270;28;20203;-72
2024/01/18 08:23:19;;;;;;;31.85;20.77;;;-0.20;99.90;;;;;;4993438;28;20315;-71
2024/01/18 08:25:46;;;;;;;28.55;19.30;;;0.00;99.90;;;;;;5001615;28;20205;-72
2024/01/18 08:28:14;;;;;;;22.33;17.65;;;0.40;99.90;;;;;;4992647;28;20696;-70
2024/01/18 08:30:41;;;;;;;21.50;15.25;;;1.10;99.90;;;;;;4987376;28;20297;-71
2024/01/18 08:33:09;;;;;;;17.83;14.18;;;1.70;99.90;;;;;;5000450;28;20701;-72
2024/01/18 08:35:36;;;;;;;13.93;10.90;;;2.20;99.90;;;;;;4992039;28;20302;-72
2024/01/18 08:38:03;;;;;;;14.57;10.98;;;3.10;99.90;;;;;;4994791;28;20272;-71
2024/01/18 08:40:30;;;;;;;17.63;12.35;;;4.10;99.90;;;;;;4993705;28;20557;-72
2024/01/18 08:42:57;;;;;;;20.20;13.77;;;4.90;99.90;;;;;;4995984;28;20456;-71
2024/01/18 08:45:25;;;;;;;15.88;11.85;;;5.30;99.90;;;;;;5001542;28;20257;-72
2024/01/18 08:47:53;;;;;;;14.73;11.85;;;5.70;99.90;;;;;;4991761;28;20268;-70
2024/01/18 08:50:20;;;;;;;12.52;9.23;;;6.10;99.90;;;;;;4990468;28;20280;-72
2024/01/18 08:52:51;;;;;;;16.08;10.52;;;6.70;99.90;;;;;;4990358;28;20235;-72
2024/01/18 08:55:18;;;;;;;13.23;10.20;;;7.00;99.90;;;;;;4985383;28;20206;-71
2024/01/18 08:57:45;;;;;;;13.48;10.43;;;6.80;99.90;;;;;;4985616;28;20201;-72
2024/01/18 09:00:17;;;;;;;14.00;9.80;;;7.10;99.90;;;;;;5000119;28;20198;-71
2024/01/18 09:02:46;;;;;;;12.38;9.27;;;7.40;99.90;;;;;;4987142;28;20265;-71
2024/01/18 09:05:14;;;;;;;9.38;8.48;;;8.10;99.30;;;;;;4981585;28;20648;-73
2024/01/18 09:07:41;;;;;;;14.05;10.77;;;8.80;97.80;;;;;;5000685;28;20209;-69
2024/01/18 09:10:09;;;;;;;11.52;10.30;;;7.90;95.80;;;;;;4979025;28;20261;-69
2024/01/18 09:12:36;;;;;;;10.90;8.98;;;7.50;98.00;;;;;;4997184;28;20312;-70
2024/01/18 09:15:04;;;;;;;12.07;10.15;;;7.40;98.00;;;;;;4983894;28;20289;-71
2024/01/18 09:17:31;;;;;;;11.27;9.32;;;7.70;98.50;;;;;;4992260;28;20206;-70
2024/01/18 09:20:00;;;;;;;10.65;9.45;;;7.30;97.90;;;;;;4986722;28;20715;-71
2024/01/18 09:22:27;;;;;;;11.45;9.55;;;7.50;97.70;;;;;;4997437;28;20700;-72
2024/01/18 09:24:54;;;;;;;11.55;8.25;;;7.60;98.20;;;;;;4991209;28;20272;-69
2024/01/18 09:27:22;;;;;;;11.80;8.38;;;7.90;97.70;;;;;;4996984;28;20256;-69
2024/01/18 09:29:49;;;;;;;11.57;7.97;;;8.20;97.30;;;;;;4986336;28;20210;-69
2024/01/18 09:32:16;;;;;;;9.65;8.57;;;8.10;97.00;;;;;;5000634;28;20233;-70
2024/01/18 09:34:43;;;;;;;9.68;6.90;;;8.40;97.00;;;;;;4988483;28;20209;-70
2024/01/18 09:37:12;;;;;;;8.95;8.02;;;8.70;96.70;;;;;;4991796;28;20233;-69
2024/01/18 09:39:39;;;;;;;10.32;8.75;;;9.20;95.90;;;;;;4990156;28;20264;-69
2024/01/18 09:42:14;;;;;;;7.35;6.55;;;9.40;95.50;;;;;;4995087;28;20276;-69
2024/01/18 09:44:47;;;;;;;10.73;8.60;;;9.50;94.90;;;;;;4996535;28;20311;-70
2024/01/18 09:47:15;;;;;;;11.30;7.93;;;9.40;94.60;;;;;;4988475;28;20650;-68
2024/01/18 09:49:43;;;;;;;10.57;6.60;;;9.00;95.00;;;;;;4998457;28;20197;-68
2024/01/18 09:52:12;;;;;;;9.70;5.85;;;9.30;95.30;;;;;;4992603;28;20565;-71
2024/01/18 09:54:39;;;;;;;9.82;6.47;;;9.70;95.10;;;;;;4992033;28;20692;-70
2024/01/18 09:57:09;;;;;;;15.45;8.45;;;9.90;94.40;;;;;;4998350;28;20238;-69
2024/01/18 09:59:37;;;;;;;8.55;7.45;;;10.10;93.70;;;;;;4993290;28;20260;-69
2024/01/18 10:02:05;;;;;;;8.02;5.55;;;10.30;93.10;;;;;;4991527;28;20288;-70
2024/01/18 10:04:33;;;;;;;7.13;5.20;;;10.10;93.30;;;;;;4994998;28;20217;-70
2024/01/18 10:07:00;;;;;;;6.28;5.65;;;9.90;93.50;;;;;;4985408;28;20203;-70
2024/01/18 10:09:29;;;;;;;8.57;5.53;;;9.60;94.20;;;;;;4990622;28;20280;-70
2024/01/18 10:11:56;;;;;;;8.88;5.15;;;9.90;94.20;;;;;;4989309;28;20261;-70
2024/01/18 10:14:40;;;;;;;11.38;8.30;;;10.10;94.10;;;;;;4984841;28;20213;-70
2024/01/18 10:17:07;;;;;;;6.47;4.68;;;10.40;93.60;;;;;;4996699;28;20285;-70
2024/01/18 10:19:34;;;;;;;6.25;5.50;;;10.60;93.00;;;;;;4990711;28;20234;-69
2024/01/18 10:22:02;;;;;;;5.97;5.38;;;10.50;92.70;;;;;;4993284;28;20301;-69
2024/01/18 10:24:30;;;;;;;10.05;6.15;;;9.90;93.30;;;;;;4990364;28;20202;-70
2024/01/18 10:27:05;;;;;;;8.70;6.60;;;9.90;94.20;;;;;;4997709;28;20198;-70
2024/01/18 10:29:35;;;;;;;8.57;6.55;;;9.30;94.20;;;;;;4984843;28;20578;-72
2024/01/18 10:32:03;;;;;;;11.10;5.70;;;9.10;94.80;;;;;;4995934;28;20740;-70
2024/01/18 10:34:32;;;;;;;7.07;5.75;;;9.00;95.40;;;;;;4985870;28;20213;-71
2024/01/18 10:36:59;;;;;;;8.95;6.40;;;8.80;95.40;;;;;;4991115;28;20198;-70
2024/01/18 10:39:26;;;;;;;9.93;6.13;;;8.50;95.80;;;;;;4988501;28;20552;-70
2024/01/18 10:41:55;;;;;;;9.05;5.70;;;8.60;96.10;;;;;;4994738;28;20594;-71
2024/01/18 10:44:22;;;;;;;10.52;5.80;;;8.60;96.40;;;;;;5000691;28;20209;-70
2024/01/18 10:46:49;;;;;;;9.27;6.18;;;9.00;96.30;;;;;;4993549;28;20560;-71
2024/01/18 10:49:18;;;;;;;5.82;4.30;;;9.00;95.50;;;;;;4990195;28;20241;-71
2024/01/18 10:51:45;;;;;;;9.40;5.80;;;8.70;95.80;;;;;;4989527;28;20229;-70
2024/01/18 10:54:13;;;;;;;8.05;4.63;;;8.10;96.20;;;;;;4996811;28;20201;-71
2024/01/18 10:56:41;;;;;;;6.22;4.90;;;7.70;97.00;;;;;;4994865;28;20213;-70
2024/01/18 10:59:09;;;;;;;6.25;4.05;;;7.20;97.80;;;;;;4987387;28;20209;-70
2024/01/18 11:01:36;;;;;;;7.15;5.05;;;7.00;98.60;;;;;;4993631;28;20248;-71
2024/01/18 11:04:05;;;;;;;7.07;4.53;;;6.60;99.20;;;;;;4987777;28;20265;-70
2024/01/18 11:06:33;;;;;;;10.02;4.95;;;6.30;99.90;;;;;;4992964;28;20277;-70
2024/01/18 11:09:01;;;;;;;13.82;7.00;;;6.10;99.90;;;;;;4998326;28;20244;-70
2024/01/18 11:11:31;;;;;;;8.93;6.15;;;6.10;99.90;;;;;;4992489;28;20229;-69
2024/01/18 11:13:58;;;;;;;9.90;5.22;;;6.30;99.90;;;;;;5003276;28;20248;-71
2024/01/18 11:16:27;;;;;;;5.47;4.60;;;6.20;99.90;;;;;;4993836;28;20203;-70
2024/01/18 11:18:58;;;;;;;6.07;5.28;;;5.90;99.90;;;;;;4994373;28;20199;-69
2024/01/18 11:21:39;;;;;;;7.57;4.28;;;5.70;99.90;;;;;;4989286;28;20277;-69
2024/01/18 11:24:07;;;;;;;8.13;4.32;;;5.50;99.90;;;;;;4993508;28;20524;-71
2024/01/18 11:26:34;;;;;;;7.72;3.70;;;5.50;99.90;;;;;;4989931;28;20234;-70
2024/01/18 11:29:22;;;;;;;6.75;5.60;;;5.50;99.90;;;;;;4990729;28;20285;-70
2024/01/18 11:31:50;;;;;;;13.65;4.85;;;5.60;99.90;;;;;;4991607;28;20225;-71
2024/01/18 11:34:30;;;;;;;5.45;4.28;;;5.50;99.90;;;;;;4997513;28;20214;-70
2024/01/18 11:37:11;;;;;;;7.72;4.97;;;5.30;99.90;;;;;;4991978;28;20233;-69
2024/01/18 11:39:58;;;;;;;8.27;5.45;;;4.80;99.90;;;;;;4997489;28;20214;-71
2024/01/18 11:42:27;;;;;;;5.10;4.60;;;4.60;99.90;;;;;;4994337;28;20229;-70
2024/01/18 11:45:00;;;;;;;6.65;4.50;;;4.40;99.90;;;;;;5004098;28;20544;-71
2024/01/18 11:47:31;;;;;;;8.73;5.90;;;4.20;99.90;;;;;;5000470;28;20201;-72
2024/01/18 11:50:01;;;;;;;9.65;5.35;;;4.00;99.90;;;;;;5001338;28;20205;-71
2024/01/18 11:52:31;;;;;;;8.00;5.72;;;3.90;99.90;;;;;;4994161;28;20230;-71
2024/01/18 11:54:59;;;;;;;8.50;5.05;;;4.00;99.90;;;;;;4998809;28;20202;-70
2024/01/18 11:57:26;;;;;;;7.05;4.60;;;4.10;99.90;;;;;;5003377;28;20229;-71
2024/01/18 11:59:54;;;;;;;5.40;4.05;;;4.10;99.90;;;;;;4995622;28;20247;-70
2024/01/18 12:02:21;;;;;;;7.15;5.50;;;4.10;99.90;;;;;;4992606;28;20683;-70
2024/01/18 12:04:50;;;;;;;5.75;4.50;;;4.00;99.90;;;;;;4990630;28;20211;-69
2024/01/18 12:07:18;;;;;;;7.03;5.55;;;4.00;99.90;;;;;;5005485;28;20256;-70
2024/01/18 12:09:45;;;;;;;8.48;6.00;;;3.90;99.90;;;;;;5005543;28;20213;-69
2024/01/18 12:12:12;;;;;;;5.95;4.50;;;3.90;99.90;;;;;;4992198;28;20276;-70
2024/01/18 12:14:43;;;;;;;8.15;5.30;;;3.80;99.90;;;;;;4994034;28;20290;-70
2024/01/18 12:17:11;;;;;;;9.60;5.47;;;3.80;99.90;;;;;;4994802;28;20198;-71
2024/01/18 12:19:40;;;;;;;7.28;4.43;;;3.70;99.90;;;;;;4983381;28;20202;-70
2024/01/18 12:22:09;;;;;;;5.80;4.45;;;3.70;99.90;;;;;;4988703;28;20711;-70
2024/01/18 12:24:36;;;;;;;18.67;14.52;;;3.70;99.90;;;;;;4992508;28;20202;-71
2024/01/18 12:27:05;;;;;;;6.47;5.25;;;3.70;99.90;;;;;;4991059;28;20202;-69
2024/01/18 12:29:33;;;;;;;10.75;9.65;;;3.60;99.90;;;;;;4997062;28;20255;-69
2024/01/18 12:32:01;;;;;;;17.55;12.20;;;3.60;99.90;;;;;;4986225;28;20261;-69
2024/01/18 12:34:29;;;;;;;21.40;12.95;;;3.90;99.90;;;;;;4991827;28;20234;-68
2024/01/18 12:36:56;;;;;;;13.48;11.20;;;3.90;99.90;;;;;;4987948;28;20504;-71
2024/01/18 12:39:25;;;;;;;12.23;5.10;;;4.00;99.90;;;;;;4995205;28;20221;-69
2024/01/18 12:41:53;;;;;;;6.05;4.65;;;4.10;99.90;;;;;;4997948;28;20565;-71